createdAt,value
2022-12-04T00:04:01.331Z,143.45
2022-12-04T00:09:05.590Z,157.25
2022-12-04T00:14:07.990Z,134.07
2022-12-04T00:19:10.408Z,162.35
2022-12-04T00:24:13.652Z,135.75
2022-12-04T00:29:15.646Z,121.13
2022-12-04T00:34:17.750Z,137.52
2022-12-04T00:39:21.054Z,139.88
2022-12-04T00:44:22.976Z,118.47
2022-12-04T00:49:24.891Z,105.72
2022-12-04T00:54:28.151Z,92.97
2022-12-04T00:59:30.048Z,112.60
2022-12-04T01:04:32.021Z,95.00
2022-12-04T01:09:35.280Z,69.05
2022-12-04T01:14:37.233Z,33.33
2022-12-04T01:19:40.771Z,17.38
2022-12-04T01:24:44.050Z,85.45
2022-12-04T01:29:46.086Z,85.45
2022-12-04T01:34:48.053Z,87.72
2022-12-04T01:39:51.310Z,68.97
2022-12-04T01:45:26.648Z,76.30
2022-12-04T01:50:29.123Z,34.13
2022-12-04T01:55:32.587Z,26.27
2022-12-04T02:00:34.516Z,14.27
2022-12-04T02:05:36.497Z,36.10
2022-12-04T02:10:46.080Z,24.42
2022-12-04T02:15:54.268Z,14.13
2022-12-04T02:21:06.381Z,15.00
2022-12-04T02:26:25.898Z,7.70
2022-12-04T02:31:35.313Z,23.60
2022-12-04T02:36:43.146Z,18.42
2022-12-04T02:41:51.228Z,13.38
2022-12-04T02:46:57.681Z,9.02
2022-12-04T02:52:01.437Z,5.85
2022-12-04T02:57:07.183Z,9.00
2022-12-04T03:02:15.681Z,8.15
2022-12-04T03:07:23.083Z,7.68
2022-12-04T03:12:30.146Z,57.15
2022-12-04T03:17:38.639Z,50.17
2022-12-04T03:22:43.987Z,49.10
2022-12-04T03:27:52.266Z,31.40
2022-12-04T03:33:00.024Z,46.90
2022-12-04T03:38:05.015Z,35.45
2022-12-04T03:43:13.444Z,48.58
2022-12-04T03:48:23.334Z,61.30
2022-12-04T03:53:32.338Z,55.88
2022-12-04T03:58:38.062Z,71.82
2022-12-04T04:03:44.801Z,60.97
2022-12-04T04:08:50.872Z,65.70
2022-12-04T04:14:17.343Z,40.92
2022-12-04T04:19:40.935Z,60.50
2022-12-04T04:24:45.801Z,64.07
2022-12-04T04:29:52.364Z,49.53
2022-12-04T04:35:03.585Z,45.70
2022-12-04T04:40:15.344Z,52.33
2022-12-04T04:45:22.034Z,51.10
2022-12-04T04:50:26.826Z,45.38
2022-12-04T04:55:34.304Z,40.70
2022-12-04T05:00:37.068Z,50.33
2022-12-04T05:05:40.317Z,54.13
2022-12-04T05:10:42.253Z,61.72
2022-12-04T05:15:44.521Z,52.05
2022-12-04T05:20:47.819Z,54.92
2022-12-04T05:25:49.793Z,60.85
2022-12-04T05:30:54.956Z,53.35
2022-12-04T05:35:59.025Z,49.92
2022-12-04T05:41:02.247Z,66.05
2022-12-04T05:46:05.378Z,57.10
2022-12-04T05:51:10.038Z,46.92
2022-12-04T05:56:12.000Z,69.05
2022-12-04T06:01:16.290Z,43.92
2022-12-04T06:06:22.627Z,46.40
2022-12-04T06:11:27.189Z,40.55
2022-12-04T06:16:31.048Z,23.30
2022-12-04T06:21:36.918Z,57.67
2022-12-04T06:26:52.037Z,54.38
2022-12-04T06:32:00.903Z,40.22
2022-12-04T06:37:04.274Z,27.90
2022-12-04T06:42:06.254Z,43.67
2022-12-04T06:47:09.095Z,59.88
2022-12-04T06:52:12.430Z,29.45
2022-12-04T06:57:14.446Z,55.60
2022-12-04T07:02:16.391Z,73.55
2022-12-04T07:07:20.305Z,54.72
2022-12-04T07:12:22.201Z,75.95
2022-12-04T07:17:24.137Z,45.40
2022-12-04T07:22:28.186Z,37.65
2022-12-04T07:32:32.295Z,49.10
2022-12-04T07:37:36.881Z,39.63
2022-12-04T07:42:38.834Z,68.03
2022-12-04T07:47:40.780Z,48.58
2022-12-04T07:52:44.083Z,38.20
2022-12-04T07:57:46.015Z,43.70
2022-12-04T08:02:49.357Z,51.97
2022-12-04T08:07:52.654Z,43.95
2022-12-04T08:12:54.592Z,42.33
2022-12-04T08:17:56.579Z,52.70
2022-12-04T08:22:59.872Z,51.25
2022-12-04T08:28:01.810Z,52.92
2022-12-04T08:33:03.783Z,37.67
2022-12-04T08:38:07.536Z,18.30
2022-12-04T08:43:09.468Z,38.20
2022-12-04T08:48:11.439Z,43.15
2022-12-04T08:53:14.720Z,50.30
2022-12-04T08:58:17.541Z,44.95
2022-12-04T09:03:24.758Z,44.28
2022-12-04T09:08:31.463Z,34.08
2022-12-04T09:18:36.822Z,48.08
2022-12-04T09:23:40.988Z,47.60
2022-12-04T09:28:42.912Z,47.30
2022-12-04T09:33:45.550Z,34.05
2022-12-04T09:38:50.360Z,35.70
2022-12-04T09:43:57.855Z,40.95
2022-12-04T09:49:04.805Z,41.45
2022-12-04T09:54:14.223Z,37.67
2022-12-04T09:59:22.210Z,35.30
2022-12-04T10:04:24.919Z,44.15
2022-12-04T10:09:36.224Z,40.13
2022-12-04T10:15:01.805Z,43.38
2022-12-04T10:20:17.446Z,46.85
2022-12-04T10:25:22.695Z,31.60
2022-12-04T10:30:27.436Z,45.05
2022-12-04T10:35:31.020Z,48.28
2022-12-04T10:40:41.510Z,43.65
2022-12-04T10:45:43.526Z,57.97
2022-12-04T10:50:45.575Z,35.47
2022-12-04T10:55:48.898Z,43.83
2022-12-04T11:01:02.389Z,57.67
2022-12-04T11:06:06.392Z,52.53
2022-12-04T11:11:12.841Z,48.70
2022-12-04T11:16:33.556Z,52.33
2022-12-04T11:21:35.563Z,55.33
2022-12-04T11:26:42.590Z,56.85
2022-12-04T11:31:49.053Z,39.63
2022-12-04T11:36:53.812Z,58.30
2022-12-04T11:42:02.807Z,40.70
2022-12-04T11:47:06.806Z,49.88
2022-12-04T11:52:20.191Z,57.78
2022-12-04T11:57:31.983Z,42.45
2022-12-04T12:02:57.980Z,57.35
2022-12-04T12:08:08.795Z,39.20
2022-12-04T12:13:22.845Z,22.55
2022-12-04T12:18:42.047Z,28.23
2022-12-04T12:24:00.137Z,59.67
2022-12-04T12:29:17.370Z,45.40
2022-12-04T12:34:30.143Z,40.35
2022-12-04T12:39:40.235Z,35.40
2022-12-04T12:44:53.424Z,35.90
2022-12-04T12:49:59.331Z,47.85
2022-12-04T12:55:13.243Z,43.03
2022-12-04T13:00:19.829Z,43.83
2022-12-04T13:05:26.491Z,39.80
2022-12-04T13:10:33.815Z,64.85
2022-12-04T13:15:41.524Z,42.67
2022-12-04T13:20:50.884Z,73.68
2022-12-04T13:25:59.770Z,32.35
2022-12-04T13:31:14.188Z,42.50
2022-12-04T13:36:52.929Z,26.33
2022-12-04T13:41:58.827Z,40.50
2022-12-04T13:47:04.806Z,78.00
2022-12-04T13:52:23.095Z,72.55
2022-12-04T13:57:27.347Z,68.40
2022-12-04T14:02:35.275Z,57.28
2022-12-04T14:07:39.922Z,95.22
2022-12-04T14:12:49.881Z,52.42
2022-12-04T14:18:01.174Z,66.13
2022-12-04T14:23:26.404Z,53.28
2022-12-04T14:28:42.580Z,35.22
2022-12-04T14:33:49.373Z,51.75
2022-12-04T14:39:03.054Z,83.82
2022-12-04T14:44:05.507Z,63.47
2022-12-04T14:49:27.112Z,58.80
2022-12-04T14:54:40.549Z,79.60
2022-12-04T14:59:45.353Z,95.00
2022-12-04T15:04:50.785Z,132.77
2022-12-04T15:10:15.924Z,73.68
2022-12-04T15:15:24.798Z,78.53
2022-12-04T15:20:37.449Z,113.13
2022-12-04T15:25:45.608Z,98.30
2022-12-04T15:30:49.568Z,149.25
2022-12-04T15:35:57.098Z,106.78
2022-12-04T15:41:00.785Z,108.88
2022-12-04T15:46:12.976Z,74.28
2022-12-04T15:51:20.524Z,71.93
2022-12-04T15:56:23.698Z,116.03
2022-12-04T16:01:26.361Z,86.53
2022-12-04T16:06:32.065Z,142.95
2022-12-04T16:11:37.053Z,95.63
2022-12-04T16:16:43.788Z,97.38
2022-12-04T16:21:47.574Z,72.68
2022-12-04T16:26:51.177Z,88.22
2022-12-04T16:31:57.040Z,79.13
2022-12-04T16:37:12.220Z,90.75
2022-12-04T16:42:17.377Z,56.90
2022-12-04T16:47:19.692Z,109.10
2022-12-04T16:52:23.165Z,82.72
2022-12-04T16:57:25.289Z,81.22
2022-12-04T17:02:27.607Z,60.35
2022-12-04T17:07:31.094Z,49.83
2022-12-04T17:12:33.051Z,84.88
2022-12-04T17:17:35.153Z,56.53
2022-12-04T17:22:38.902Z,67.15
2022-12-04T17:27:40.921Z,73.22
2022-12-04T17:32:42.906Z,58.67
2022-12-04T17:37:46.346Z,80.60
2022-12-04T17:42:48.326Z,80.22
2022-12-04T17:47:50.610Z,61.60
2022-12-04T17:52:53.937Z,71.90
2022-12-04T17:57:55.982Z,83.18
2022-12-04T18:02:58.200Z,61.58
2022-12-04T18:08:01.678Z,56.53
2022-12-04T18:13:03.936Z,87.75
2022-12-04T18:18:05.925Z,81.28
2022-12-04T18:23:09.190Z,79.50
2022-12-04T18:28:11.391Z,86.97
2022-12-04T18:33:17.561Z,83.90
2022-12-04T18:38:22.929Z,78.05
2022-12-04T18:43:24.903Z,66.85
2022-12-04T18:48:27.405Z,64.38
2022-12-04T18:53:30.778Z,63.05
2022-12-04T18:58:32.891Z,58.22
2022-12-04T19:03:35.372Z,49.83
2022-12-04T19:08:43.039Z,63.45
2022-12-04T19:13:45.534Z,69.05
2022-12-04T19:18:47.637Z,62.45
2022-12-04T19:23:54.857Z,62.38
2022-12-04T19:28:57.830Z,76.85
2022-12-04T19:34:00.719Z,77.47
2022-12-04T19:39:05.188Z,95.35
2022-12-04T19:44:39.661Z,120.25
2022-12-04T19:49:29.291Z,121.30
2022-12-04T19:54:32.595Z,153.65
2022-12-04T19:59:38.602Z,135.23
2022-12-04T20:04:43.270Z,143.60
2022-12-04T20:09:52.108Z,89.35
2022-12-04T20:14:54.523Z,124.88
2022-12-04T20:19:56.808Z,90.63
2022-12-04T20:25:00.217Z,105.40
2022-12-04T20:30:02.248Z,95.53
2022-12-04T20:35:04.759Z,84.50
2022-12-04T20:40:09.130Z,81.05
2022-12-04T20:45:11.583Z,77.97
2022-12-04T20:50:13.520Z,77.38
2022-12-04T20:55:17.054Z,83.70
2022-12-04T21:00:19.268Z,91.72
2022-12-04T21:05:21.215Z,91.00
2022-12-04T21:10:24.531Z,111.85
2022-12-04T21:15:45.136Z,100.10
2022-12-04T21:20:47.219Z,138.07
2022-12-04T21:25:50.492Z,142.60
2022-12-04T21:30:52.503Z,80.00
2022-12-04T21:35:54.604Z,78.10
2022-12-04T21:40:57.874Z,111.32
2022-12-04T21:46:05.846Z,86.05
2022-12-04T21:51:32.746Z,127.65
2022-12-04T21:56:34.361Z,157.48
2022-12-04T22:01:36.887Z,217.18
2022-12-04T22:06:39.021Z,161.25
2022-12-04T22:11:42.473Z,271.08
2022-12-04T22:16:44.454Z,198.68
2022-12-04T22:21:46.476Z,160.48
2022-12-04T22:26:49.846Z,203.13
2022-12-04T22:31:51.890Z,144.32
2022-12-04T22:36:53.958Z,198.73
2022-12-04T22:41:57.281Z,157.23
2022-12-04T22:46:59.288Z,158.43
2022-12-04T22:52:01.262Z,107.28
2022-12-04T22:57:04.996Z,132.88
2022-12-04T23:02:06.914Z,86.80
2022-12-04T23:07:09.159Z,145.40
2022-12-04T23:12:12.448Z,78.50
2022-12-04T23:17:14.398Z,98.10
2022-12-04T23:22:16.331Z,86.97
2022-12-04T23:27:19.589Z,74.35
2022-12-04T23:32:21.577Z,45.42
2022-12-04T23:37:23.467Z,74.20
2022-12-04T23:42:30.749Z,85.82
2022-12-04T23:47:32.947Z,87.25
2022-12-04T23:52:34.880Z,69.15
2022-12-04T23:57:38.164Z,55.92
